createdAt,value
2019-02-17T00:00:55.124Z,5.5
2019-02-17T00:01:57.351Z,5.4
2019-02-17T00:02:59.475Z,5.4
2019-02-17T00:04:01.597Z,5.3
2019-02-17T00:05:04.128Z,5.5
2019-02-17T00:06:06.244Z,5.4
2019-02-17T00:07:08.355Z,5.4
2019-02-17T00:08:10.489Z,5.4
2019-02-17T00:09:12.633Z,5.4
2019-02-17T00:10:14.753Z,5.3
2019-02-17T00:11:16.884Z,5.4
2019-02-17T00:12:18.991Z,5.4
2019-02-17T00:13:21.131Z,5.3
2019-02-17T00:14:25.143Z,5.3
2019-02-17T00:15:27.274Z,5.3
2019-02-17T00:16:29.372Z,5.3
2019-02-17T00:17:31.528Z,5.3
2019-02-17T00:18:33.669Z,5.2
2019-02-17T00:19:36.165Z,5.3
2019-02-17T00:20:38.300Z,5.2
2019-02-17T00:21:40.411Z,5.2
2019-02-17T00:22:42.555Z,5.1
2019-02-17T00:23:44.669Z,5.2
2019-02-17T00:24:46.803Z,5.2
2019-02-17T00:25:48.935Z,5.1
2019-02-17T00:26:51.081Z,5.1
2019-02-17T00:27:53.222Z,5.1
2019-02-17T00:29:01.133Z,5.1
2019-02-17T00:30:03.260Z,5.2
2019-02-17T00:31:05.386Z,5.1
2019-02-17T00:32:08.061Z,5
2019-02-17T00:33:10.173Z,5
2019-02-17T00:34:15.059Z,5
2019-02-17T00:35:17.186Z,5
2019-02-17T00:36:19.332Z,5
2019-02-17T00:37:21.460Z,5
2019-02-17T00:38:23.567Z,5
2019-02-17T00:39:25.709Z,5
2019-02-17T00:40:27.841Z,5.1
2019-02-17T00:41:29.995Z,5.1
2019-02-17T00:42:32.110Z,5.1
2019-02-17T00:43:34.512Z,5
2019-02-17T00:44:36.639Z,5.1
2019-02-17T00:45:38.750Z,5.1
2019-02-17T00:46:41.270Z,5.2
2019-02-17T00:47:43.382Z,5.1
2019-02-17T00:48:46.095Z,5.2
2019-02-17T00:49:48.199Z,5.1
2019-02-17T00:50:50.326Z,5.1
2019-02-17T00:51:52.461Z,5.1
2019-02-17T00:52:54.613Z,5.1
2019-02-17T00:53:57.625Z,5
2019-02-17T00:54:59.742Z,4.9
2019-02-17T00:56:01.882Z,4.9
2019-02-17T00:57:04.007Z,4.9
2019-02-17T00:58:06.163Z,4.9
2019-02-17T00:59:11.571Z,5
2019-02-17T01:00:13.696Z,5
2019-02-17T01:01:15.908Z,5
2019-02-17T01:02:18.033Z,4.9
2019-02-17T01:03:20.175Z,4.9
2019-02-17T01:04:22.298Z,4.9
2019-02-17T01:05:24.688Z,4.9
2019-02-17T01:06:26.808Z,4.8
2019-02-17T01:07:29.221Z,4.8
2019-02-17T01:08:31.338Z,4.8
2019-02-17T01:09:33.761Z,4.8
2019-02-17T01:10:35.879Z,4.8
2019-02-17T01:11:38.053Z,4.8
2019-02-17T01:12:40.176Z,4.8
2019-02-17T01:13:42.309Z,4.7
2019-02-17T01:14:44.414Z,4.6
2019-02-17T01:15:46.545Z,4.6
2019-02-17T01:16:48.677Z,4.6
2019-02-17T01:17:50.804Z,4.6
2019-02-17T01:18:52.916Z,4.7
2019-02-17T01:19:55.065Z,4.8
2019-02-17T01:20:57.570Z,5
2019-02-17T01:21:59.703Z,4.9
2019-02-17T01:23:01.824Z,4.9
2019-02-17T01:24:04.284Z,5
2019-02-17T01:25:06.403Z,4.9
2019-02-17T01:26:08.509Z,5
2019-02-17T01:27:10.643Z,5
2019-02-17T01:28:12.751Z,5.1
2019-02-17T01:29:21.851Z,5.1
2019-02-17T01:30:23.967Z,5.1
2019-02-17T01:31:26.502Z,5.1
2019-02-17T01:32:28.621Z,5.1
2019-02-17T01:33:30.743Z,5.2
2019-02-17T01:34:32.861Z,5.3
2019-02-17T01:35:34.962Z,5.3
2019-02-17T01:36:37.091Z,5.2
2019-02-17T01:37:39.205Z,5.3
2019-02-17T01:38:41.309Z,5.3
2019-02-17T01:39:43.428Z,5.3
2019-02-17T01:40:45.557Z,5.4
2019-02-17T01:41:47.663Z,5.5
2019-02-17T01:42:49.788Z,5.6
2019-02-17T01:43:51.904Z,5.6
2019-02-17T01:44:54.344Z,5.6
2019-02-17T01:45:56.500Z,5.6
2019-02-17T01:46:58.644Z,5.6
2019-02-17T01:48:01.025Z,5.6
2019-02-17T01:49:03.171Z,5.6
2019-02-17T01:50:05.305Z,5.7
2019-02-17T01:51:07.409Z,6
2019-02-17T01:52:09.543Z,5.9
2019-02-17T01:53:11.657Z,5.8
2019-02-17T01:54:13.771Z,6
2019-02-17T01:55:16.165Z,5.9
2019-02-17T01:56:18.299Z,5.9
2019-02-17T01:57:20.458Z,6.2
2019-02-17T01:58:22.960Z,6
2019-02-17T01:59:31.936Z,6
2019-02-17T02:00:34.331Z,6
2019-02-17T02:01:36.461Z,6.2
2019-02-17T02:02:38.589Z,6.2
2019-02-17T02:03:40.707Z,6.1
2019-02-17T02:04:42.803Z,6
2019-02-17T02:05:44.927Z,6
2019-02-17T02:06:47.037Z,6
2019-02-17T02:07:49.856Z,6.1
2019-02-17T02:08:52.372Z,6.2
2019-02-17T02:09:54.479Z,6.2
2019-02-17T02:10:56.605Z,6.2
2019-02-17T02:11:58.746Z,6.1
2019-02-17T02:13:00.940Z,6.2
2019-02-17T02:14:03.095Z,6.3
2019-02-17T02:15:05.215Z,6.1
2019-02-17T02:16:07.318Z,6.1
2019-02-17T02:17:09.434Z,6.2
2019-02-17T02:18:11.560Z,6.3
2019-02-17T02:19:13.686Z,6.1
2019-02-17T02:20:15.788Z,6.2
2019-02-17T02:21:18.351Z,6.3
2019-02-17T02:22:20.470Z,6.4
2019-02-17T02:23:22.882Z,6.4
2019-02-17T02:24:25.022Z,6.3
2019-02-17T02:25:27.125Z,6.4
2019-02-17T02:26:29.636Z,6.4
2019-02-17T02:27:31.762Z,6.2
2019-02-17T02:28:33.892Z,6.1
2019-02-17T02:29:42.762Z,6.1
2019-02-17T02:30:45.193Z,6
2019-02-17T02:31:47.348Z,6.1
2019-02-17T02:32:49.470Z,5.9
2019-02-17T02:33:52.015Z,5.9
2019-02-17T02:34:54.158Z,6
2019-02-17T02:35:56.279Z,6.1
2019-02-17T02:36:59.001Z,6.2
2019-02-17T02:38:01.413Z,6.4
2019-02-17T02:39:03.597Z,6.3
2019-02-17T02:40:06.001Z,6.4
2019-02-17T02:41:08.445Z,6.4
2019-02-17T02:42:10.603Z,6.5
2019-02-17T02:43:12.719Z,6.6
2019-02-17T02:44:15.436Z,6.9
2019-02-17T02:45:17.572Z,6.7
2019-02-17T02:46:19.840Z,6.7
2019-02-17T02:47:21.984Z,6.6
2019-02-17T02:48:24.117Z,6.6
2019-02-17T02:49:26.535Z,6.6
2019-02-17T02:50:28.652Z,6.5
2019-02-17T02:51:31.082Z,6.4
2019-02-17T02:52:33.268Z,6.5
2019-02-17T02:53:35.385Z,6.5
2019-02-17T02:54:37.528Z,6.5
2019-02-17T02:55:39.650Z,6.6
2019-02-17T02:56:42.058Z,6.6
2019-02-17T02:57:44.189Z,6.6
2019-02-17T02:58:46.309Z,6.6
2019-02-17T02:59:54.050Z,6.7
2019-02-17T03:00:56.195Z,6.6
2019-02-17T03:01:58.641Z,6.7
2019-02-17T03:03:00.762Z,6.7
2019-02-17T03:04:02.938Z,6.7
2019-02-17T03:05:05.062Z,6.8
2019-02-17T03:06:07.167Z,6.8
2019-02-17T03:07:09.329Z,6.9
2019-02-17T03:08:11.448Z,6.9
2019-02-17T03:09:13.567Z,6.8
2019-02-17T03:10:15.686Z,6.8
2019-02-17T03:11:17.829Z,6.7
2019-02-17T03:12:19.955Z,6.6
2019-02-17T03:13:22.064Z,6.7
2019-02-17T03:14:24.257Z,6.8
2019-02-17T03:15:26.395Z,6.8
2019-02-17T03:16:28.523Z,6.9
2019-02-17T03:17:31.058Z,7
2019-02-17T03:18:33.921Z,7
2019-02-17T03:19:36.339Z,7
2019-02-17T03:20:38.541Z,7.1
2019-02-17T03:21:40.691Z,7.1
2019-02-17T03:22:42.806Z,7.2
2019-02-17T03:23:45.320Z,7.2
2019-02-17T03:24:47.840Z,7.2
2019-02-17T03:25:50.020Z,7.2
2019-02-17T03:26:52.816Z,7.2
2019-02-17T03:27:54.968Z,7.3
2019-02-17T03:28:57.074Z,7.2
2019-02-17T03:30:07.904Z,7.2
2019-02-17T03:31:10.477Z,7.2
2019-02-17T03:32:12.886Z,7.3
2019-02-17T03:33:15.311Z,7.3
2019-02-17T03:34:17.743Z,7.2
2019-02-17T03:35:20.152Z,7.1
2019-02-17T03:36:22.894Z,7.1
2019-02-17T03:37:25.415Z,7.1
2019-02-17T03:38:27.545Z,7.1
2019-02-17T03:39:29.661Z,7.1
2019-02-17T03:40:31.862Z,7.1
2019-02-17T03:41:33.997Z,7.1
2019-02-17T03:42:36.122Z,7.2
2019-02-17T03:43:38.537Z,7
2019-02-17T03:44:40.680Z,7
2019-02-17T03:45:43.089Z,7.1
2019-02-17T03:46:45.233Z,7.1
2019-02-17T03:47:47.365Z,7.1
2019-02-17T03:48:49.757Z,7
2019-02-17T03:49:52.286Z,7
2019-02-17T03:50:54.691Z,7
2019-02-17T03:51:56.842Z,7
2019-02-17T03:52:58.966Z,6.8
2019-02-17T03:54:01.460Z,6.9
2019-02-17T03:55:04.168Z,6.9
2019-02-17T03:56:06.576Z,7
2019-02-17T03:57:08.721Z,7
2019-02-17T03:58:11.152Z,7
2019-02-17T03:59:13.938Z,7
2019-02-17T04:00:18.628Z,7
2019-02-17T04:01:20.801Z,7
2019-02-17T04:02:22.924Z,6.9
2019-02-17T04:03:25.046Z,6.8
2019-02-17T04:04:27.221Z,6.8
2019-02-17T04:05:29.450Z,6.8
2019-02-17T04:06:31.572Z,6.8
2019-02-17T04:07:33.709Z,6.7
2019-02-17T04:08:35.860Z,6.6
2019-02-17T04:09:37.997Z,6.7
2019-02-17T04:10:40.138Z,6.7
2019-02-17T04:11:42.269Z,6.7
2019-02-17T04:12:44.689Z,6.8
2019-02-17T04:13:46.820Z,6.7
2019-02-17T04:14:48.948Z,6.5
2019-02-17T04:15:51.641Z,6.5
2019-02-17T04:16:53.762Z,6.5
2019-02-17T04:17:56.289Z,6.6
2019-02-17T04:18:58.397Z,6.5
2019-02-17T04:20:00.757Z,6.5
2019-02-17T04:21:02.900Z,6.5
2019-02-17T04:22:05.002Z,6.5
2019-02-17T04:23:07.519Z,6.5
2019-02-17T04:24:09.635Z,6.5
2019-02-17T04:25:11.783Z,6.5
2019-02-17T04:26:13.942Z,6.4
2019-02-17T04:27:16.160Z,6.4
2019-02-17T04:28:18.275Z,6.4
2019-02-17T04:29:20.698Z,6.4
2019-02-17T04:30:30.913Z,6.4
2019-02-17T04:31:33.039Z,6.3
2019-02-17T04:32:35.228Z,6.2
2019-02-17T04:33:37.365Z,6.3
2019-02-17T04:34:39.877Z,6.1
2019-02-17T04:35:41.995Z,6.2
2019-02-17T04:36:44.143Z,6.2
2019-02-17T04:37:46.258Z,6.2
2019-02-17T04:38:48.397Z,6.2
2019-02-17T04:39:50.812Z,6.2
2019-02-17T04:40:53.349Z,6.2
2019-02-17T04:41:55.825Z,6.2
2019-02-17T04:42:57.964Z,6.2
2019-02-17T04:44:00.073Z,6.2
2019-02-17T04:45:02.791Z,6.2
2019-02-17T04:46:05.313Z,6.2
2019-02-17T04:47:07.419Z,6.2
2019-02-17T04:48:09.944Z,6.2
2019-02-17T04:49:12.061Z,6.2
2019-02-17T04:50:14.204Z,6.2
2019-02-17T04:51:16.328Z,6.2
2019-02-17T04:52:18.750Z,6.2
2019-02-17T04:53:21.226Z,6.2
2019-02-17T04:54:23.355Z,6.2
2019-02-17T04:55:25.781Z,6.2
2019-02-17T04:56:27.905Z,6.1
2019-02-17T04:57:30.415Z,6.1
2019-02-17T04:58:32.562Z,6.1
2019-02-17T04:59:35.077Z,6.1
2019-02-17T05:00:41.976Z,6
2019-02-17T05:01:44.665Z,6.1
2019-02-17T05:02:47.167Z,6.1
2019-02-17T05:03:49.295Z,6.2
2019-02-17T05:04:51.832Z,6.2
2019-02-17T05:05:54.027Z,6.2
2019-02-17T05:06:56.154Z,6.2
2019-02-17T05:07:58.340Z,6.2
2019-02-17T05:09:00.479Z,6.2
2019-02-17T05:10:02.616Z,6.2
2019-02-17T05:11:04.769Z,6.1
2019-02-17T05:12:06.909Z,6.2
2019-02-17T05:13:09.064Z,6.1
2019-02-17T05:14:11.533Z,6.1
2019-02-17T05:15:14.043Z,6.1
2019-02-17T05:16:16.221Z,6.1
2019-02-17T05:17:18.613Z,6.1
2019-02-17T05:18:20.760Z,6.1
2019-02-17T05:19:23.179Z,6.1
2019-02-17T05:20:25.284Z,6.1
2019-02-17T05:21:27.735Z,6.2
2019-02-17T05:22:30.154Z,6.2
2019-02-17T05:23:32.673Z,6.2
2019-02-17T05:24:34.890Z,6.3
2019-02-17T05:25:37.056Z,6.2
2019-02-17T05:26:39.180Z,6.2
2019-02-17T05:27:41.299Z,6.2
2019-02-17T05:28:43.443Z,6.2
2019-02-17T05:29:45.563Z,6.2
2019-02-17T05:30:54.510Z,6.2
2019-02-17T05:31:56.956Z,6.2
2019-02-17T05:32:59.613Z,6.2
2019-02-17T05:34:02.036Z,6.2
2019-02-17T05:35:04.170Z,6.2
2019-02-17T05:36:06.601Z,6.2
2019-02-17T05:37:08.732Z,6.2
2019-02-17T05:38:11.161Z,6.3
2019-02-17T05:39:13.291Z,6.2
2019-02-17T05:40:15.466Z,6.3
2019-02-17T05:41:17.614Z,6.3
2019-02-17T05:42:19.747Z,6.2
2019-02-17T05:43:22.591Z,6.3
2019-02-17T05:44:24.713Z,6.3
2019-02-17T05:45:26.931Z,6.3
2019-02-17T05:46:29.608Z,6.2
2019-02-17T05:47:31.754Z,6.2
2019-02-17T05:48:33.878Z,6.3
2019-02-17T05:49:36.021Z,6.3
2019-02-17T05:50:38.226Z,6.3
2019-02-17T05:51:40.353Z,6.3
2019-02-17T05:52:42.491Z,6.3
2019-02-17T05:53:45.163Z,6.2
2019-02-17T05:54:47.571Z,6.2
2019-02-17T05:55:52.728Z,6.2
2019-02-17T05:56:54.856Z,6.2
2019-02-17T05:57:57.237Z,6.2
2019-02-17T05:58:59.378Z,6.2
2019-02-17T06:00:01.800Z,6.2
2019-02-17T06:01:08.264Z,6.2
2019-02-17T06:02:10.408Z,6.2
2019-02-17T06:03:12.545Z,6.2
2019-02-17T06:04:15.386Z,6.2
2019-02-17T06:05:17.527Z,6.2
2019-02-17T06:06:19.677Z,6.2
2019-02-17T06:07:22.179Z,6.2
2019-02-17T06:08:24.311Z,6.2
2019-02-17T06:09:26.724Z,6.2
2019-02-17T06:10:28.844Z,6.2
2019-02-17T06:11:31.034Z,6.3
2019-02-17T06:12:33.540Z,6.3
2019-02-17T06:13:35.669Z,6.2
2019-02-17T06:14:38.250Z,6.3
2019-02-17T06:15:40.657Z,6.3
2019-02-17T06:16:42.769Z,6.3
2019-02-17T06:17:44.912Z,6.2
2019-02-17T06:18:47.091Z,6.2
2019-02-17T06:19:49.227Z,6.3
2019-02-17T06:20:51.342Z,6.2
2019-02-17T06:21:53.759Z,6.2
2019-02-17T06:22:55.880Z,6.3
2019-02-17T06:23:57.989Z,6.3
2019-02-17T06:25:00.222Z,6.3
2019-02-17T06:26:02.658Z,6.3
2019-02-17T06:27:04.764Z,6.3
2019-02-17T06:28:07.852Z,6.3
2019-02-17T06:29:10.266Z,6.2
2019-02-17T06:30:12.673Z,6.2
2019-02-17T06:31:15.914Z,6.1
2019-02-17T06:32:18.415Z,6.2
2019-02-17T06:33:21.403Z,6.1
2019-02-17T06:34:23.806Z,6.1
2019-02-17T06:35:25.948Z,6.1
2019-02-17T06:36:28.051Z,6.2
2019-02-17T06:37:30.558Z,6.2
2019-02-17T06:38:32.687Z,6.1
2019-02-17T06:39:35.113Z,6.2
2019-02-17T06:40:37.233Z,6.2
2019-02-17T06:41:40.199Z,6.2
2019-02-17T06:42:42.325Z,6.1
2019-02-17T06:43:44.476Z,6.2
2019-02-17T06:44:46.917Z,6.2
2019-02-17T06:45:49.038Z,6.2
2019-02-17T06:46:51.164Z,6.2
2019-02-17T06:47:53.614Z,6.2
2019-02-17T06:48:55.725Z,6.2
2019-02-17T06:49:57.835Z,6.2
2019-02-17T06:50:59.969Z,6.2
2019-02-17T06:52:02.536Z,6.2
2019-02-17T06:53:04.942Z,6.2
2019-02-17T06:54:07.059Z,6.2
2019-02-17T06:55:09.253Z,6.2
2019-02-17T06:56:11.371Z,6.2
2019-02-17T06:57:13.511Z,6.3
2019-02-17T06:58:16.021Z,6.2
2019-02-17T06:59:18.139Z,6.3
2019-02-17T07:00:20.276Z,6.3
2019-02-17T07:01:26.101Z,6.3
2019-02-17T07:02:28.218Z,6.3
2019-02-17T07:03:30.416Z,6.3
2019-02-17T07:04:32.609Z,6.3
2019-02-17T07:05:34.824Z,6.3
2019-02-17T07:06:37.046Z,6.3
2019-02-17T07:07:39.234Z,6.3
2019-02-17T07:08:41.416Z,6.3
2019-02-17T07:09:43.629Z,6.3
2019-02-17T07:10:45.748Z,6.3
2019-02-17T07:11:48.447Z,6.4
2019-02-17T07:12:50.890Z,6.3
2019-02-17T07:13:53.592Z,6.3
2019-02-17T07:14:55.704Z,6.3
2019-02-17T07:15:57.832Z,6.3
2019-02-17T07:16:59.946Z,6.3
2019-02-17T07:18:02.123Z,6.2
2019-02-17T07:19:04.261Z,6.2
2019-02-17T07:20:06.399Z,6.2
2019-02-17T07:21:08.793Z,6.1
2019-02-17T07:22:10.926Z,6.2
2019-02-17T07:23:15.722Z,6.3
2019-02-17T07:24:17.880Z,6.3
2019-02-17T07:25:31.554Z,6.4
2019-02-17T07:26:33.680Z,6.4
2019-02-17T07:27:35.804Z,6.5
2019-02-17T07:28:37.912Z,6.5
2019-02-17T07:29:40.099Z,6.5
2019-02-17T07:30:42.205Z,6.5
2019-02-17T07:31:44.330Z,6.5
2019-02-17T07:32:46.453Z,6.5
2019-02-17T07:33:49.188Z,6.5
2019-02-17T07:34:51.326Z,6.5
2019-02-17T07:35:53.751Z,6.5
2019-02-17T07:36:56.176Z,6.5
2019-02-17T07:37:58.280Z,6.4
2019-02-17T07:39:00.403Z,6.4
2019-02-17T07:40:02.914Z,6.5
2019-02-17T07:41:05.049Z,6.5
2019-02-17T07:42:10.073Z,6.5
2019-02-17T07:43:12.489Z,6.5
2019-02-17T07:44:14.678Z,6.6
2019-02-17T07:45:17.475Z,6.6
2019-02-17T07:46:19.589Z,6.6
2019-02-17T07:47:21.717Z,6.6
2019-02-17T07:48:23.824Z,6.6
2019-02-17T07:49:25.967Z,6.7
2019-02-17T07:50:28.152Z,6.7
2019-02-17T07:51:30.281Z,6.7
2019-02-17T07:52:35.535Z,6.7
2019-02-17T07:53:37.671Z,6.7
2019-02-17T07:54:39.771Z,6.6
2019-02-17T07:55:41.899Z,6.7
2019-02-17T07:56:44.019Z,6.7
2019-02-17T07:57:46.133Z,6.8
2019-02-17T07:58:48.262Z,6.8
2019-02-17T07:59:50.373Z,6.8
2019-02-17T08:00:52.488Z,6.8
2019-02-17T08:01:54.595Z,6.9
2019-02-17T08:02:56.731Z,6.9
2019-02-17T08:03:58.935Z,6.9
2019-02-17T08:05:01.170Z,7
2019-02-17T08:06:03.356Z,7
2019-02-17T08:07:05.472Z,7.1
2019-02-17T08:08:07.687Z,7.1
2019-02-17T08:09:09.805Z,7.1
2019-02-17T08:10:11.935Z,7.1
2019-02-17T08:11:14.341Z,7.1
2019-02-17T08:12:16.488Z,7.1
2019-02-17T08:13:18.601Z,7.1
2019-02-17T08:14:20.713Z,7.2
2019-02-17T08:15:22.940Z,7.2
2019-02-17T08:16:25.447Z,7.2
2019-02-17T08:17:27.562Z,7.3
2019-02-17T08:18:29.670Z,7.4
2019-02-17T08:19:31.784Z,7.3
2019-02-17T08:20:36.827Z,7.3
2019-02-17T08:21:38.955Z,7.4
2019-02-17T08:22:41.376Z,7.5
2019-02-17T08:23:43.492Z,7.5
2019-02-17T08:24:45.884Z,7.5
2019-02-17T08:25:48.008Z,7.6
2019-02-17T08:26:50.522Z,7.6
2019-02-17T08:27:52.633Z,7.7
2019-02-17T08:28:54.777Z,7.8
2019-02-17T08:29:56.897Z,7.9
2019-02-17T08:30:59.019Z,8
2019-02-17T08:32:01.144Z,8.1
2019-02-17T08:33:03.256Z,8.1
2019-02-17T08:34:05.405Z,8.2
2019-02-17T08:35:07.526Z,8.3
2019-02-17T08:36:09.666Z,8.3
2019-02-17T08:37:11.787Z,8.4
2019-02-17T08:38:13.955Z,8.4
2019-02-17T08:39:16.395Z,8.5
2019-02-17T08:40:18.505Z,8.5
2019-02-17T08:41:20.640Z,8.6
2019-02-17T08:42:22.772Z,8.5
2019-02-17T08:43:25.305Z,8.4
2019-02-17T08:44:27.418Z,8.6
2019-02-17T08:45:29.553Z,8.5
2019-02-17T08:46:31.670Z,8.6
2019-02-17T08:47:33.786Z,8.7
2019-02-17T08:48:35.927Z,8.7
2019-02-17T08:49:38.068Z,8.8
2019-02-17T08:50:40.189Z,8.8
2019-02-17T08:51:42.327Z,8.7
2019-02-17T08:52:44.467Z,8.7
2019-02-17T08:53:46.864Z,8.8
2019-02-17T08:54:48.987Z,8.8
2019-02-17T08:55:51.123Z,8.9
2019-02-17T08:56:53.246Z,8.9
2019-02-17T08:57:55.354Z,8.9
2019-02-17T08:58:57.559Z,8.9
2019-02-17T08:59:59.978Z,9.1
2019-02-17T09:01:02.087Z,9
2019-02-17T09:02:07.397Z,9
2019-02-17T09:03:09.534Z,9
2019-02-17T09:04:11.655Z,9.1
2019-02-17T09:05:14.152Z,9.1
2019-02-17T09:06:16.309Z,9.1
2019-02-17T09:07:19.037Z,9.1
2019-02-17T09:08:21.153Z,9.3
2019-02-17T09:09:23.306Z,9.4
2019-02-17T09:10:25.428Z,9.4
2019-02-17T09:11:27.554Z,9.3
2019-02-17T09:12:29.685Z,9.5
2019-02-17T09:13:31.789Z,9.6
2019-02-17T09:14:33.934Z,9.4
2019-02-17T09:15:36.060Z,9.5
2019-02-17T09:16:38.491Z,9.7
2019-02-17T09:17:40.603Z,9.7
2019-02-17T09:18:43.031Z,9.7
2019-02-17T09:19:45.161Z,9.6
2019-02-17T09:20:47.280Z,9.6
2019-02-17T09:21:49.726Z,9.7
2019-02-17T09:22:51.844Z,9.8
2019-02-17T09:23:53.977Z,9.7
2019-02-17T09:24:56.479Z,9.9
2019-02-17T09:25:58.881Z,9.9
2019-02-17T09:27:01.000Z,9.9
2019-02-17T09:28:03.138Z,9.9
2019-02-17T09:29:05.533Z,9.8
2019-02-17T09:30:07.651Z,9.8
2019-02-17T09:31:09.814Z,9.9
2019-02-17T09:32:17.821Z,9.9
2019-02-17T09:33:19.948Z,9.8
2019-02-17T09:34:22.456Z,9.7
2019-02-17T09:35:24.577Z,9.7
2019-02-17T09:36:26.773Z,9.7
2019-02-17T09:37:29.302Z,9.7
2019-02-17T09:38:31.414Z,9.7
2019-02-17T09:39:33.540Z,9.7
2019-02-17T09:40:35.660Z,9.6
2019-02-17T09:41:37.793Z,9.6
2019-02-17T09:42:39.939Z,9.5
2019-02-17T09:43:42.673Z,9.6
2019-02-17T09:44:44.808Z,9.6
2019-02-17T09:45:47.226Z,9.5
2019-02-17T09:46:49.393Z,9.4
2019-02-17T09:47:51.508Z,9.4
2019-02-17T09:48:56.044Z,9.4
2019-02-17T09:49:58.192Z,9.5
2019-02-17T09:51:00.334Z,9.5
2019-02-17T09:52:02.860Z,9.5
2019-02-17T09:53:05.008Z,9.6
2019-02-17T09:54:07.155Z,9.5
2019-02-17T09:55:09.262Z,9.5
2019-02-17T09:56:11.787Z,9.5
2019-02-17T09:57:13.973Z,9.6
2019-02-17T09:58:16.093Z,9.7
2019-02-17T09:59:18.287Z,9.6
2019-02-17T10:00:20.425Z,9.7
2019-02-17T10:01:22.547Z,9.7
2019-02-17T10:02:27.903Z,9.7
2019-02-17T10:03:30.045Z,9.7
2019-02-17T10:04:32.163Z,9.8
2019-02-17T10:05:34.666Z,9.9
2019-02-17T10:06:36.812Z,9.9
2019-02-17T10:07:39.308Z,9.9
2019-02-17T10:08:41.446Z,9.9
2019-02-17T10:09:43.592Z,9.8
2019-02-17T10:10:45.726Z,9.7
2019-02-17T10:11:48.132Z,9.9
2019-02-17T10:12:50.256Z,9.8
2019-02-17T10:13:52.783Z,9.8
2019-02-17T10:14:55.581Z,9.9
2019-02-17T10:15:57.972Z,9.8
2019-02-17T10:17:00.112Z,9.8
2019-02-17T10:18:02.236Z,9.8
2019-02-17T10:19:04.348Z,9.8
2019-02-17T10:20:06.494Z,9.9
2019-02-17T10:21:09.166Z,9.9
2019-02-17T10:22:11.322Z,9.9
2019-02-17T10:23:13.440Z,9.9
2019-02-17T10:24:15.974Z,9.9
2019-02-17T10:25:18.198Z,10
2019-02-17T10:26:20.329Z,10
2019-02-17T10:27:22.457Z,9.9
2019-02-17T10:28:24.699Z,10.1
2019-02-17T10:29:26.839Z,10
2019-02-17T10:30:29.016Z,10.1
2019-02-17T10:31:31.409Z,10.1
2019-02-17T10:32:40.592Z,10.1
2019-02-17T10:33:43.131Z,10.2
2019-02-17T10:34:45.289Z,10.2
2019-02-17T10:35:47.427Z,10.2
2019-02-17T10:36:49.770Z,10.2
2019-02-17T10:37:51.887Z,10.3
2019-02-17T10:38:54.178Z,10.3
2019-02-17T10:39:56.323Z,10.4
2019-02-17T10:40:58.433Z,10.4
2019-02-17T10:42:00.625Z,10.4
2019-02-17T10:43:04.836Z,10.4
2019-02-17T10:44:06.994Z,10.4
2019-02-17T10:45:09.161Z,10.4
2019-02-17T10:46:11.355Z,10.5
2019-02-17T10:47:13.482Z,10.6
2019-02-17T10:48:15.624Z,10.6
2019-02-17T10:49:20.425Z,10.6
2019-02-17T10:50:22.568Z,10.7
2019-02-17T10:51:27.428Z,10.7
2019-02-17T10:52:29.560Z,10.7
2019-02-17T10:53:31.700Z,10.7
2019-02-17T10:54:33.819Z,10.8
2019-02-17T10:55:35.955Z,10.7
2019-02-17T10:56:38.094Z,10.6
2019-02-17T10:57:40.343Z,10.4
2019-02-17T10:58:42.858Z,10.4
2019-02-17T10:59:45.283Z,10.4
2019-02-17T11:00:47.422Z,10.7
2019-02-17T11:01:49.925Z,10.9
2019-02-17T11:02:52.089Z,10.9
2019-02-17T11:03:54.210Z,11.2
2019-02-17T11:04:56.326Z,11.2
2019-02-17T11:05:58.443Z,11.1
2019-02-17T11:07:01.214Z,11.2
2019-02-17T11:08:03.663Z,11.2
2019-02-17T11:09:05.846Z,11.2
2019-02-17T11:10:07.967Z,11.3
2019-02-17T11:11:10.153Z,11.2
2019-02-17T11:12:12.284Z,11.2
2019-02-17T11:13:14.436Z,11.4
2019-02-17T11:14:16.894Z,11.5
2019-02-17T11:15:19.034Z,11.6
2019-02-17T11:16:21.591Z,11.6
2019-02-17T11:17:23.723Z,11.5
2019-02-17T11:18:26.294Z,11.6
2019-02-17T11:19:28.451Z,11.7
2019-02-17T11:20:30.585Z,11.8
2019-02-17T11:21:32.711Z,11.9
2019-02-17T11:22:34.926Z,12.1
2019-02-17T11:23:37.040Z,12.3
2019-02-17T11:24:39.166Z,12.5
2019-02-17T11:25:41.310Z,12.8
2019-02-17T11:26:44.117Z,13.1
2019-02-17T11:27:46.316Z,12.9
2019-02-17T11:28:48.640Z,13.1
2019-02-17T11:29:50.759Z,13.1
2019-02-17T11:30:52.901Z,13.3
2019-02-17T11:31:55.015Z,13.5
2019-02-17T11:32:59.425Z,13.5
2019-02-17T11:34:01.956Z,13.8
2019-02-17T11:35:04.755Z,13.7
2019-02-17T11:36:06.893Z,13.8
2019-02-17T11:37:09.026Z,13.8
2019-02-17T11:38:11.428Z,13.7
2019-02-17T11:39:13.560Z,13.9
2019-02-17T11:40:15.720Z,13.9
2019-02-17T11:41:17.862Z,13.9
2019-02-17T11:42:20.015Z,13.7
2019-02-17T11:43:22.551Z,13.9
2019-02-17T11:44:24.966Z,13.8
2019-02-17T11:45:27.479Z,14.1
2019-02-17T11:46:29.641Z,14.2
2019-02-17T11:47:31.758Z,14.3
2019-02-17T11:48:33.957Z,14.3
2019-02-17T11:49:36.096Z,14.1
2019-02-17T11:50:38.607Z,14.1
2019-02-17T11:51:41.038Z,14.2
2019-02-17T11:52:43.170Z,14.1
2019-02-17T11:53:45.305Z,14.3
2019-02-17T11:54:49.532Z,14.2
2019-02-17T11:55:51.684Z,14.3
2019-02-17T11:56:53.810Z,14.4
2019-02-17T11:57:55.953Z,14.1
2019-02-17T11:58:58.401Z,13.8
2019-02-17T12:00:00.915Z,14.2
2019-02-17T12:01:05.613Z,14.4
2019-02-17T12:02:07.755Z,14.4
2019-02-17T12:03:10.003Z,15
2019-02-17T12:04:12.132Z,15
2019-02-17T12:05:14.556Z,14.7
2019-02-17T12:06:16.705Z,15.1
2019-02-17T12:07:18.836Z,15.1
2019-02-17T12:08:21.270Z,15.3
2019-02-17T12:09:23.389Z,15
2019-02-17T12:10:25.526Z,14.5
2019-02-17T12:11:27.669Z,15.2
2019-02-17T12:12:29.801Z,15.4
2019-02-17T12:13:31.915Z,15.2
2019-02-17T12:14:34.054Z,15
2019-02-17T12:15:36.168Z,14.9
2019-02-17T12:16:38.518Z,15
2019-02-17T12:17:40.660Z,15.1
2019-02-17T12:18:42.798Z,15.3
2019-02-17T12:19:44.920Z,15
2019-02-17T12:20:47.149Z,15.4
2019-02-17T12:21:49.670Z,15.5
2019-02-17T12:22:51.799Z,15.5
2019-02-17T12:23:54.541Z,15.4
2019-02-17T12:24:56.663Z,15.3
2019-02-17T12:25:58.800Z,15
2019-02-17T12:27:00.947Z,15.1
2019-02-17T12:28:03.215Z,15.4
2019-02-17T12:29:05.731Z,15.1
2019-02-17T12:30:09.142Z,15.3
2019-02-17T12:31:11.272Z,15.5
2019-02-17T12:32:13.397Z,15.6
2019-02-17T12:33:23.209Z,15.8
2019-02-17T12:34:25.378Z,15.3
2019-02-17T12:35:27.520Z,15.6
2019-02-17T12:36:29.652Z,15.8
2019-02-17T12:37:32.108Z,15.8
2019-02-17T12:38:34.227Z,15.7
2019-02-17T12:39:36.375Z,15.8
2019-02-17T12:40:38.522Z,15.8
2019-02-17T12:41:40.652Z,16
2019-02-17T12:42:42.786Z,16.1
2019-02-17T12:43:44.932Z,16
2019-02-17T12:44:47.582Z,16.1
2019-02-17T12:45:49.725Z,15.7
2019-02-17T12:46:51.848Z,16
2019-02-17T12:47:59.752Z,15.2
2019-02-17T12:49:01.883Z,15.4
2019-02-17T12:50:06.174Z,15.4
2019-02-17T12:51:08.319Z,15.5
2019-02-17T12:52:10.530Z,15.4
2019-02-17T12:53:12.656Z,15.6
2019-02-17T12:54:15.091Z,15.9
2019-02-17T12:55:17.606Z,15.7
2019-02-17T12:56:19.743Z,16
2019-02-17T12:57:21.891Z,16.2
2019-02-17T12:58:31.558Z,16
2019-02-17T12:59:33.694Z,15.6
2019-02-17T13:00:35.839Z,15.5
2019-02-17T13:01:37.989Z,15.8
2019-02-17T13:02:40.503Z,16
2019-02-17T13:03:42.958Z,15.9
2019-02-17T13:04:45.104Z,15.7
2019-02-17T13:05:47.757Z,16
2019-02-17T13:06:49.905Z,16.1
2019-02-17T13:07:52.429Z,15.8
2019-02-17T13:08:54.580Z,16
2019-02-17T13:09:56.782Z,16
2019-02-17T13:10:58.926Z,15.9
2019-02-17T13:12:01.122Z,15.8
2019-02-17T13:13:06.476Z,15.9
2019-02-17T13:14:09.009Z,15.6
2019-02-17T13:15:11.146Z,15.7
2019-02-17T13:16:13.672Z,15.8
2019-02-17T13:17:15.804Z,15.5
2019-02-17T13:18:17.922Z,15.7
2019-02-17T13:19:20.086Z,15.9
2019-02-17T13:20:22.224Z,16
2019-02-17T13:21:24.365Z,15.8
2019-02-17T13:22:26.517Z,16
2019-02-17T13:23:28.661Z,15.8
2019-02-17T13:24:30.785Z,15.9
2019-02-17T13:25:33.249Z,15.4
2019-02-17T13:26:35.679Z,15.7
2019-02-17T13:27:37.802Z,15.6
2019-02-17T13:28:39.941Z,15.9
2019-02-17T13:29:42.084Z,15.9
2019-02-17T13:30:44.212Z,16.2
2019-02-17T13:31:46.635Z,15.8
2019-02-17T13:32:48.798Z,15.6
2019-02-17T13:33:51.215Z,15.6
2019-02-17T13:34:53.348Z,15.4
2019-02-17T13:35:55.492Z,15.6
2019-02-17T13:36:57.685Z,15.4
2019-02-17T13:37:59.892Z,15.4
2019-02-17T13:39:02.090Z,15.5
2019-02-17T13:40:04.623Z,15.4
2019-02-17T13:41:06.762Z,15.1
2019-02-17T13:42:08.909Z,15.4
2019-02-17T13:43:11.053Z,15.5
2019-02-17T13:44:13.173Z,15.6
2019-02-17T13:45:15.321Z,15.8
2019-02-17T13:46:17.447Z,16
2019-02-17T13:47:19.574Z,15.4
2019-02-17T13:48:21.728Z,15.6
2019-02-17T13:49:23.848Z,15.5
2019-02-17T13:50:26.274Z,15.6
2019-02-17T13:51:28.732Z,15.6
2019-02-17T13:52:33.268Z,15.7
2019-02-17T13:53:35.397Z,15.6
2019-02-17T13:54:37.537Z,15.5
2019-02-17T13:55:39.663Z,14.9
2019-02-17T13:56:41.806Z,15.3
2019-02-17T13:57:44.003Z,15.4
2019-02-17T13:58:46.143Z,15.5
2019-02-17T13:59:48.292Z,15.6
2019-02-17T14:00:50.409Z,15.6
2019-02-17T14:01:52.709Z,15.4
2019-02-17T14:02:54.846Z,15.6
2019-02-17T14:03:56.966Z,15.5
2019-02-17T14:04:59.402Z,15.4
2019-02-17T14:06:01.531Z,15.4
2019-02-17T14:07:03.687Z,14.7
2019-02-17T14:08:05.810Z,14.6
2019-02-17T14:09:07.956Z,15
2019-02-17T14:10:10.095Z,15.1
2019-02-17T14:11:12.225Z,15.3
2019-02-17T14:12:14.363Z,15.2
2019-02-17T14:13:16.487Z,15.3
2019-02-17T14:14:18.628Z,15.3
2019-02-17T14:15:20.851Z,15.1
2019-02-17T14:16:23.276Z,15.2
2019-02-17T14:17:25.398Z,14.9